sensor_id;sensor_type;location;lat;lon;timestamp;pressure;altitude;pressure_sealevel;temperature;humidity
9839;BME280;4958;48.150;11.506;2023-09-12T00:01:09;95159.47;;;23.65;67.01
9839;BME280;4958;48.150;11.506;2023-09-12T00:03:36;95158.16;;;23.62;66.86
9839;BME280;4958;48.150;11.506;2023-09-12T00:06:03;95149.22;;;23.63;67.09
9839;BME280;4958;48.150;11.506;2023-09-12T00:08:30;95147.59;;;23.67;66.96
9839;BME280;4958;48.150;11.506;2023-09-12T00:11:05;95129.97;;;23.68;66.86
9839;BME280;4958;48.150;11.506;2023-09-12T00:13:35;95131.88;;;23.62;66.50
9839;BME280;4958;48.150;11.506;2023-09-12T00:16:02;95115.00;;;23.68;66.33
9839;BME280;4958;48.150;11.506;2023-09-12T00:18:30;95128.72;;;23.60;66.62
9839;BME280;4958;48.150;11.506;2023-09-12T00:20:57;95128.19;;;23.58;66.61
9839;BME280;4958;48.150;11.506;2023-09-12T00:23:25;95109.53;;;23.65;66.10
9839;BME280;4958;48.150;11.506;2023-09-12T00:25:52;95107.38;;;23.67;65.93
9839;BME280;4958;48.150;11.506;2023-09-12T00:28:21;95090.56;;;23.68;65.90
9839;BME280;4958;48.150;11.506;2023-09-12T00:30:48;95082.19;;;23.66;65.79
9839;BME280;4958;48.150;11.506;2023-09-12T00:33:14;95089.56;;;23.59;65.58
9839;BME280;4958;48.150;11.506;2023-09-12T00:35:41;95103.22;;;23.51;65.91
9839;BME280;4958;48.150;11.506;2023-09-12T00:38:08;95105.31;;;23.49;66.14
9839;BME280;4958;48.150;11.506;2023-09-12T00:40:35;95099.81;;;23.50;66.21
9839;BME280;4958;48.150;11.506;2023-09-12T00:43:03;95089.28;;;23.60;66.13
9839;BME280;4958;48.150;11.506;2023-09-12T00:45:31;95075.13;;;23.56;65.72
9839;BME280;4958;48.150;11.506;2023-09-12T00:47:58;95072.22;;;23.58;65.35
9839;BME280;4958;48.150;11.506;2023-09-12T00:50:25;95078.00;;;23.55;65.76
9839;BME280;4958;48.150;11.506;2023-09-12T00:52:53;95113.56;;;23.22;66.95
9839;BME280;4958;48.150;11.506;2023-09-12T00:55:20;95140.13;;;22.95;67.82
9839;BME280;4958;48.150;11.506;2023-09-12T00:57:47;95154.59;;;22.87;68.48
9839;BME280;4958;48.150;11.506;2023-09-12T01:00:14;95156.69;;;22.90;68.60
9839;BME280;4958;48.150;11.506;2023-09-12T01:02:44;95158.56;;;22.90;68.45
9839;BME280;4958;48.150;11.506;2023-09-12T01:05:13;95150.66;;;22.95;68.34
9839;BME280;4958;48.150;11.506;2023-09-12T01:07:42;95151.69;;;22.94;68.50
9839;BME280;4958;48.150;11.506;2023-09-12T01:10:09;95162.22;;;22.89;68.86
9839;BME280;4958;48.150;11.506;2023-09-12T01:12:36;95175.03;;;22.75;69.69
9839;BME280;4958;48.150;11.506;2023-09-12T01:15:03;95177.69;;;22.70;69.66
9839;BME280;4958;48.150;11.506;2023-09-12T01:17:33;95180.03;;;22.61;70.00
9839;BME280;4958;48.150;11.506;2023-09-12T01:20:05;95175.31;;;22.68;69.63
9839;BME280;4958;48.150;11.506;2023-09-12T01:22:45;95190.50;;;22.56;70.02
9839;BME280;4958;48.150;11.506;2023-09-12T01:25:42;95188.94;;;22.55;70.32
9839;BME280;4958;48.150;11.506;2023-09-12T01:28:15;95202.56;;;22.52;70.60
9839;BME280;4958;48.150;11.506;2023-09-12T01:30:45;95197.88;;;22.49;70.32
9839;BME280;4958;48.150;11.506;2023-09-12T01:33:15;95211.75;;;22.39;70.68
9839;BME280;4958;48.150;11.506;2023-09-12T01:35:41;95226.38;;;22.20;71.69
9839;BME280;4958;48.150;11.506;2023-09-12T01:38:08;95240.50;;;22.04;72.59
9839;BME280;4958;48.150;11.506;2023-09-12T01:40:40;95239.72;;;22.14;72.46
9839;BME280;4958;48.150;11.506;2023-09-12T01:43:08;95240.28;;;22.21;72.05
9839;BME280;4958;48.150;11.506;2023-09-12T01:45:37;95223.00;;;22.30;71.46
9839;BME280;4958;48.150;11.506;2023-09-12T01:48:05;95217.75;;;22.35;71.01
9839;BME280;4958;48.150;11.506;2023-09-12T01:50:33;95215.13;;;22.35;71.21
9839;BME280;4958;48.150;11.506;2023-09-12T01:53:00;95210.97;;;22.39;70.75
9839;BME280;4958;48.150;11.506;2023-09-12T01:55:27;95202.56;;;22.42;70.26
9839;BME280;4958;48.150;11.506;2023-09-12T01:57:53;95201.78;;;22.42;70.23
9839;BME280;4958;48.150;11.506;2023-09-12T02:00:21;95198.66;;;22.45;69.74
9839;BME280;4958;48.150;11.506;2023-09-12T02:02:50;95192.09;;;22.47;69.65
9839;BME280;4958;48.150;11.506;2023-09-12T02:05:19;95187.34;;;22.44;69.69
9839;BME280;4958;48.150;11.506;2023-09-12T02:07:46;95201.25;;;22.39;69.83
9839;BME280;4958;48.150;11.506;2023-09-12T02:10:13;95203.88;;;22.39;69.95
9839;BME280;4958;48.150;11.506;2023-09-12T02:12:40;95213.31;;;22.40;70.14
9839;BME280;4958;48.150;11.506;2023-09-12T02:15:07;95204.13;;;22.38;69.67
9839;BME280;4958;48.150;11.506;2023-09-12T02:17:34;95197.06;;;22.44;69.20
9839;BME280;4958;48.150;11.506;2023-09-12T02:20:02;95197.56;;;22.35;69.62
9839;BME280;4958;48.150;11.506;2023-09-12T02:22:30;95186.81;;;22.42;69.16
9839;BME280;4958;48.150;11.506;2023-09-12T02:24:56;95187.88;;;22.41;68.95
9839;BME280;4958;48.150;11.506;2023-09-12T02:27:23;95187.06;;;22.35;69.22
9839;BME280;4958;48.150;11.506;2023-09-12T02:29:49;95189.19;;;22.38;69.10
9839;BME280;4958;48.150;11.506;2023-09-12T02:32:16;95184.69;;;22.34;69.20
9839;BME280;4958;48.150;11.506;2023-09-12T02:34:42;95191.00;;;22.28;69.17
9839;BME280;4958;48.150;11.506;2023-09-12T02:37:10;95186.53;;;22.33;69.00
9839;BME280;4958;48.150;11.506;2023-09-12T02:39:36;95182.09;;;22.29;68.71
9839;BME280;4958;48.150;11.506;2023-09-12T02:42:03;95187.31;;;22.24;68.92
9839;BME280;4958;48.150;11.506;2023-09-12T02:44:30;95197.53;;;22.10;69.38
9839;BME280;4958;48.150;11.506;2023-09-12T02:46:58;95203.03;;;22.09;69.62
9839;BME280;4958;48.150;11.506;2023-09-12T02:49:24;95209.84;;;22.10;69.56
9839;BME280;4958;48.150;11.506;2023-09-12T02:51:51;95184.69;;;22.19;69.13
9839;BME280;4958;48.150;11.506;2023-09-12T02:54:18;95188.88;;;22.20;68.97
9839;BME280;4958;48.150;11.506;2023-09-12T02:56:45;95177.84;;;22.18;68.79
9839;BME280;4958;48.150;11.506;2023-09-12T02:59:11;95193.06;;;22.16;69.14
9839;BME280;4958;48.150;11.506;2023-09-12T03:01:40;95173.41;;;22.23;68.78
9839;BME280;4958;48.150;11.506;2023-09-12T03:04:06;95168.44;;;22.27;68.46
9839;BME280;4958;48.150;11.506;2023-09-12T03:06:33;95157.69;;;22.23;68.09
9839;BME280;4958;48.150;11.506;2023-09-12T03:08:59;95177.31;;;22.16;68.71
9839;BME280;4958;48.150;11.506;2023-09-12T03:11:27;95199.78;;;21.96;69.71
9839;BME280;4958;48.150;11.506;2023-09-12T03:13:54;95210.53;;;21.90;69.88
9839;BME280;4958;48.150;11.506;2023-09-12T03:16:21;95202.94;;;21.93;70.17
9839;BME280;4958;48.150;11.506;2023-09-12T03:18:49;95201.38;;;21.92;69.78
9839;BME280;4958;48.150;11.506;2023-09-12T03:21:15;95195.34;;;21.92;69.79
9839;BME280;4958;48.150;11.506;2023-09-12T03:23:42;95224.06;;;21.77;70.40
9839;BME280;4958;48.150;11.506;2023-09-12T03:26:08;95235.59;;;21.70;71.03
9839;BME280;4958;48.150;11.506;2023-09-12T03:28:36;95241.31;;;21.62;71.30
9839;BME280;4958;48.150;11.506;2023-09-12T03:31:03;95248.13;;;21.63;71.22
9839;BME280;4958;48.150;11.506;2023-09-12T03:33:30;95240.06;;;21.75;71.03
9839;BME280;4958;48.150;11.506;2023-09-12T03:35:57;95239.75;;;21.66;71.13
9839;BME280;4958;48.150;11.506;2023-09-12T03:38:23;95236.84;;;21.63;71.35
9839;BME280;4958;48.150;11.506;2023-09-12T03:40:49;95231.41;;;21.69;71.06
9839;BME280;4958;48.150;11.506;2023-09-12T03:43:16;95230.31;;;21.65;70.94
9839;BME280;4958;48.150;11.506;2023-09-12T03:45:44;95238.13;;;21.55;71.29
9839;BME280;4958;48.150;11.506;2023-09-12T03:48:10;95239.72;;;21.61;71.11
9839;BME280;4958;48.150;11.506;2023-09-12T03:50:36;95231.41;;;21.69;70.66
9839;BME280;4958;48.150;11.506;2023-09-12T03:53:03;95219.91;;;21.81;70.54
9839;BME280;4958;48.150;11.506;2023-09-12T03:55:29;95211.00;;;21.82;70.27
9839;BME280;4958;48.150;11.506;2023-09-12T03:57:56;95197.91;;;21.82;70.14
9839;BME280;4958;48.150;11.506;2023-09-12T04:00:22;95207.06;;;21.79;70.15
9839;BME280;4958;48.150;11.506;2023-09-12T04:02:51;95212.00;;;21.76;70.22
9839;BME280;4958;48.150;11.506;2023-09-12T04:05:17;95202.88;;;21.83;70.05
9839;BME280;4958;48.150;11.506;2023-09-12T04:07:44;95208.09;;;21.78;69.93
9839;BME280;4958;48.150;11.506;2023-09-12T04:10:10;95212.81;;;21.76;70.19
9839;BME280;4958;48.150;11.506;2023-09-12T04:12:37;95212.81;;;21.76;70.15
9839;BME280;4958;48.150;11.506;2023-09-12T04:15:04;95218.59;;;21.73;70.14
9839;BME280;4958;48.150;11.506;2023-09-12T04:17:31;95210.97;;;21.77;70.13
9839;BME280;4958;48.150;11.506;2023-09-12T04:19:59;95224.31;;;21.70;70.27
9839;BME280;4958;48.150;11.506;2023-09-12T04:22:25;95235.28;;;21.62;70.46
9839;BME280;4958;48.150;11.506;2023-09-12T04:24:53;95252.50;;;21.48;71.26
9839;BME280;4958;48.150;11.506;2023-09-12T04:27:20;95255.91;;;21.48;71.65
9839;BME280;4958;48.150;11.506;2023-09-12T04:29:46;95259.81;;;21.46;71.42
9839;BME280;4958;48.150;11.506;2023-09-12T04:32:13;95253.59;;;21.57;70.88
9839;BME280;4958;48.150;11.506;2023-09-12T04:34:42;95235.03;;;21.63;70.56
9839;BME280;4958;48.150;11.506;2023-09-12T04:37:09;95230.56;;;21.64;70.38
9839;BME280;4958;48.150;11.506;2023-09-12T04:39:36;95219.31;;;21.63;70.10
9839;BME280;4958;48.150;11.506;2023-09-12T04:42:03;95225.59;;;21.62;70.20
9839;BME280;4958;48.150;11.506;2023-09-12T04:44:34;95225.09;;;21.65;70.03
9839;BME280;4958;48.150;11.506;2023-09-12T04:47:01;95221.13;;;21.63;70.04
9839;BME280;4958;48.150;11.506;2023-09-12T04:49:28;95216.66;;;21.53;69.99
9839;BME280;4958;48.150;11.506;2023-09-12T04:51:54;95229.41;;;21.45;70.26
9839;BME280;4958;48.150;11.506;2023-09-12T04:54:22;95233.38;;;21.47;70.53
9839;BME280;4958;48.150;11.506;2023-09-12T04:56:48;95226.59;;;21.51;70.32
9839;BME280;4958;48.150;11.506;2023-09-12T04:59:15;95221.56;;;21.45;70.56
9839;BME280;4958;48.150;11.506;2023-09-12T05:01:41;95229.16;;;21.46;70.08
9839;BME280;4958;48.150;11.506;2023-09-12T05:04:08;95237.53;;;21.43;70.68
9839;BME280;4958;48.150;11.506;2023-09-12T05:06:34;95238.34;;;21.49;70.25
9839;BME280;4958;48.150;11.506;2023-09-12T05:09:01;95244.34;;;21.44;71.09
9839;BME280;4958;48.150;11.506;2023-09-12T05:11:29;95251.16;;;21.45;70.88
9839;BME280;4958;48.150;11.506;2023-09-12T05:13:56;95248.53;;;21.45;70.76
9839;BME280;4958;48.150;11.506;2023-09-12T05:16:22;95248.59;;;21.50;70.80
9839;BME280;4958;48.150;11.506;2023-09-12T05:18:48;95268.72;;;21.45;71.40
9839;BME280;4958;48.150;11.506;2023-09-12T05:21:16;95276.03;;;21.43;71.83
9839;BME280;4958;48.150;11.506;2023-09-12T05:23:42;95266.69;;;21.52;71.16
9839;BME280;4958;48.150;11.506;2023-09-12T05:26:09;95263.56;;;21.55;70.71
9839;BME280;4958;48.150;11.506;2023-09-12T05:28:36;95265.09;;;21.56;70.73
9839;BME280;4958;48.150;11.506;2023-09-12T05:31:03;95249.41;;;21.61;70.49
9839;BME280;4958;48.150;11.506;2023-09-12T05:33:29;95258.34;;;21.65;70.67
9839;BME280;4958;48.150;11.506;2023-09-12T05:35:56;95253.13;;;21.65;70.62
9839;BME280;4958;48.150;11.506;2023-09-12T05:38:22;95252.38;;;21.69;70.38
9839;BME280;4958;48.150;11.506;2023-09-12T05:40:49;95252.91;;;21.71;70.22
9839;BME280;4958;48.150;11.506;2023-09-12T05:43:16;95254.75;;;21.76;70.58
9839;BME280;4958;48.150;11.506;2023-09-12T05:45:44;95252.97;;;21.87;70.01
9839;BME280;4958;48.150;11.506;2023-09-12T05:48:10;95260.34;;;21.90;70.40
9839;BME280;4958;48.150;11.506;2023-09-12T05:50:37;95250.63;;;21.95;69.97
9839;BME280;4958;48.150;11.506;2023-09-12T05:53:15;95240.22;;;22.00;69.72
9839;BME280;4958;48.150;11.506;2023-09-12T05:55:44;95242.34;;;22.09;69.55
9839;BME280;4958;48.150;11.506;2023-09-12T05:58:11;95227.94;;;22.16;69.07
9839;BME280;4958;48.150;11.506;2023-09-12T06:00:37;95226.38;;;22.20;68.96
9839;BME280;4958;48.150;11.506;2023-09-12T06:03:05;95217.78;;;22.30;68.74
9839;BME280;4958;48.150;11.506;2023-09-12T06:05:31;95223.00;;;22.35;68.43
9839;BME280;4958;48.150;11.506;2023-09-12T06:07:58;95216.47;;;22.37;68.25
9839;BME280;4958;48.150;11.506;2023-09-12T06:10:25;95216.47;;;22.43;68.17
9839;BME280;4958;48.150;11.506;2023-09-12T06:12:51;95220.16;;;22.52;68.33
9839;BME280;4958;48.150;11.506;2023-09-12T06:15:18;95215.97;;;22.61;68.20
9839;BME280;4958;48.150;11.506;2023-09-12T06:17:44;95224.66;;;22.66;67.96
9839;BME280;4958;48.150;11.506;2023-09-12T06:20:12;95212.56;;;22.75;67.66
9839;BME280;4958;48.150;11.506;2023-09-12T06:22:38;95198.97;;;22.84;67.21
9839;BME280;4958;48.150;11.506;2023-09-12T06:25:05;95189.50;;;22.93;66.94
9839;BME280;4958;48.150;11.506;2023-09-12T06:27:32;95177.44;;;23.02;66.89
9839;BME280;4958;48.150;11.506;2023-09-12T06:29:58;95174.78;;;23.12;66.31
9839;BME280;4958;48.150;11.506;2023-09-12T06:32:25;95154.03;;;23.16;65.71
9839;BME280;4958;48.150;11.506;2023-09-12T06:34:51;95145.31;;;23.30;65.37
9839;BME280;4958;48.150;11.506;2023-09-12T06:37:19;95132.44;;;23.34;65.02
9839;BME280;4958;48.150;11.506;2023-09-12T06:39:49;95140.06;;;23.40;64.95
9839;BME280;4958;48.150;11.506;2023-09-12T06:42:15;95136.59;;;23.50;65.09
9839;BME280;4958;48.150;11.506;2023-09-12T06:44:42;95125.03;;;23.61;64.54
9839;BME280;4958;48.150;11.506;2023-09-12T06:47:08;95124.72;;;23.73;64.48
9839;BME280;4958;48.150;11.506;2023-09-12T06:49:35;95133.56;;;23.87;64.29
9839;BME280;4958;48.150;11.506;2023-09-12T06:52:03;95107.75;;;23.99;63.91
9839;BME280;4958;48.150;11.506;2023-09-12T06:54:32;95092.66;;;24.15;63.49
9839;BME280;4958;48.150;11.506;2023-09-12T06:56:58;95085.19;;;24.32;63.28
9839;BME280;4958;48.150;11.506;2023-09-12T06:59:25;95077.44;;;24.46;62.49
9839;BME280;4958;48.150;11.506;2023-09-12T07:01:51;95083.66;;;24.60;62.65
9839;BME280;4958;48.150;11.506;2023-09-12T07:04:18;95039.03;;;24.74;61.27
9839;BME280;4958;48.150;11.506;2023-09-12T07:06:44;95010.69;;;24.95;60.53
9839;BME280;4958;48.150;11.506;2023-09-12T07:09:11;95011.88;;;25.02;60.31
9839;BME280;4958;48.150;11.506;2023-09-12T07:11:40;94993.78;;;25.20;60.02
9839;BME280;4958;48.150;11.506;2023-09-12T07:14:08;94998.72;;;25.45;59.74
9839;BME280;4958;48.150;11.506;2023-09-12T07:16:35;94967.03;;;25.69;59.43
9839;BME280;4958;48.150;11.506;2023-09-12T07:19:03;94978.53;;;25.78;59.36
9839;BME280;4958;48.150;11.506;2023-09-12T07:21:31;94960.59;;;25.94;58.71
9839;BME280;4958;48.150;11.506;2023-09-12T07:23:57;94939.47;;;26.12;58.02
9839;BME280;4958;48.150;11.506;2023-09-12T07:26:23;94914.09;;;26.30;57.13
9839;BME280;4958;48.150;11.506;2023-09-12T07:28:51;94893.84;;;26.39;57.02
9839;BME280;4958;48.150;11.506;2023-09-12T07:31:18;94872.56;;;26.49;56.77
9839;BME280;4958;48.150;11.506;2023-09-12T07:33:44;94866.66;;;26.66;56.53
9839;BME280;4958;48.150;11.506;2023-09-12T07:36:11;94856.47;;;26.87;56.46
9839;BME280;4958;48.150;11.506;2023-09-12T07:38:39;94837.47;;;26.99;55.95
9839;BME280;4958;48.150;11.506;2023-09-12T07:41:07;94791.75;;;27.12;55.14
9839;BME280;4958;48.150;11.506;2023-09-12T07:43:33;94815.16;;;27.05;55.45
9839;BME280;4958;48.150;11.506;2023-09-12T07:46:04;94768.19;;;27.24;54.19
9839;BME280;4958;48.150;11.506;2023-09-12T07:48:30;94725.03;;;27.37;53.12
9839;BME280;4958;48.150;11.506;2023-09-12T07:50:59;94708.66;;;27.58;52.68
9839;BME280;4958;48.150;11.506;2023-09-12T07:53:25;94683.84;;;27.76;52.66
9839;BME280;4958;48.150;11.506;2023-09-12T07:55:51;94662.09;;;27.88;51.82
9839;BME280;4958;48.150;11.506;2023-09-12T07:58:19;94685.00;;;28.01;52.65
9839;BME280;4958;48.150;11.506;2023-09-12T08:00:47;94645.44;;;27.96;51.66
9839;BME280;4958;48.150;11.506;2023-09-12T08:03:15;94641.88;;;28.00;51.86
9839;BME280;4958;48.150;11.506;2023-09-12T08:05:41;94641.78;;;28.23;51.21
9839;BME280;4958;48.150;11.506;2023-09-12T08:08:08;94609.41;;;28.43;50.82
9839;BME280;4958;48.150;11.506;2023-09-12T08:10:34;94606.25;;;28.67;50.41
9839;BME280;4958;48.150;11.506;2023-09-12T08:13:01;94563.97;;;28.87;50.08
9839;BME280;4958;48.150;11.506;2023-09-12T08:15:27;94551.91;;;29.07;49.36
9839;BME280;4958;48.150;11.506;2023-09-12T08:17:54;94507.53;;;29.25;48.74
9839;BME280;4958;48.150;11.506;2023-09-12T08:20:22;94517.16;;;29.38;48.71
9839;BME280;4958;48.150;11.506;2023-09-12T08:22:48;94464.41;;;29.37;47.88
9839;BME280;4958;48.150;11.506;2023-09-12T08:25:17;94502.00;;;29.39;48.66
9839;BME280;4958;48.150;11.506;2023-09-12T08:27:43;94470.47;;;29.46;48.13
9839;BME280;4958;48.150;11.506;2023-09-12T08:30:11;94464.91;;;29.60;47.65
9839;BME280;4958;48.150;11.506;2023-09-12T08:32:38;94431.06;;;29.77;46.94
9839;BME280;4958;48.150;11.506;2023-09-12T08:35:09;94434.25;;;30.04;46.85
9839;BME280;4958;48.150;11.506;2023-09-12T08:37:37;94406.56;;;30.26;46.67
9839;BME280;4958;48.150;11.506;2023-09-12T08:40:05;94360.66;;;30.49;45.93
9839;BME280;4958;48.150;11.506;2023-09-12T08:42:38;94321.59;;;30.50;44.84
9839;BME280;4958;48.150;11.506;2023-09-12T08:45:07;94313.88;;;30.57;44.44
9839;BME280;4958;48.150;11.506;2023-09-12T08:47:35;94326.91;;;30.74;44.98
9839;BME280;4958;48.150;11.506;2023-09-12T08:50:04;94304.72;;;30.82;44.15
9839;BME280;4958;48.150;11.506;2023-09-12T08:52:31;94317.44;;;31.01;44.67
9839;BME280;4958;48.150;11.506;2023-09-12T08:54:59;94296.38;;;31.08;44.15
9839;BME280;4958;48.150;11.506;2023-09-12T08:57:26;94274.91;;;31.13;43.82
9839;BME280;4958;48.150;11.506;2023-09-12T08:59:53;94291.72;;;31.17;43.88
9839;BME280;4958;48.150;11.506;2023-09-12T09:02:20;94273.78;;;31.14;43.70
9839;BME280;4958;48.150;11.506;2023-09-12T09:04:48;94289.63;;;31.11;43.67
9839;BME280;4958;48.150;11.506;2023-09-12T09:07:16;94327.16;;;31.09;44.90
9839;BME280;4958;48.150;11.506;2023-09-12T09:09:46;94318.59;;;31.28;44.26
9839;BME280;4958;48.150;11.506;2023-09-12T09:12:14;94301.00;;;31.51;43.50
9839;BME280;4958;48.150;11.506;2023-09-12T09:14:40;94292.50;;;31.74;43.85
9839;BME280;4958;48.150;11.506;2023-09-12T09:17:07;94255.72;;;31.95;42.93
9839;BME280;4958;48.150;11.506;2023-09-12T09:19:43;94205.31;;;32.02;41.99
9839;BME280;4958;48.150;11.506;2023-09-12T09:22:11;94198.63;;;31.92;42.43
9839;BME280;4958;48.150;11.506;2023-09-12T09:24:37;94154.75;;;31.86;41.36
9839;BME280;4958;48.150;11.506;2023-09-12T09:27:04;94199.88;;;31.99;42.37
9839;BME280;4958;48.150;11.506;2023-09-12T09:29:31;94164.41;;;32.10;41.26
9839;BME280;4958;48.150;11.506;2023-09-12T09:32:00;94154.66;;;32.18;41.55
9839;BME280;4958;48.150;11.506;2023-09-12T09:34:27;94170.75;;;32.21;41.64
9839;BME280;4958;48.150;11.506;2023-09-12T09:36:56;94160.63;;;32.27;41.54
9839;BME280;4958;48.150;11.506;2023-09-12T09:39:24;94183.91;;;32.30;41.83
9839;BME280;4958;48.150;11.506;2023-09-12T09:41:51;94209.41;;;32.31;41.99
9839;BME280;4958;48.150;11.506;2023-09-12T09:44:21;94144.19;;;32.25;41.58
9839;BME280;4958;48.150;11.506;2023-09-12T09:46:55;94171.88;;;32.05;41.72
9839;BME280;4958;48.150;11.506;2023-09-12T09:49:21;94126.69;;;31.73;40.88
9839;BME280;4958;48.150;11.506;2023-09-12T09:51:48;94165.28;;;31.51;41.77
9839;BME280;4958;48.150;11.506;2023-09-12T09:54:15;94220.88;;;31.41;43.22
9839;BME280;4958;48.150;11.506;2023-09-12T09:56:45;94169.56;;;31.24;41.93
9839;BME280;4958;48.150;11.506;2023-09-12T09:59:14;94176.41;;;31.25;41.87
9839;BME280;4958;48.150;11.506;2023-09-12T10:01:41;94164.66;;;31.27;41.71
9839;BME280;4958;48.150;11.506;2023-09-12T10:04:11;94107.56;;;31.08;40.98
9839;BME280;4958;48.150;11.506;2023-09-12T10:06:38;94116.56;;;30.88;41.09
9839;BME280;4958;48.150;11.506;2023-09-12T10:09:09;94104.56;;;30.94;41.00
9839;BME280;4958;48.150;11.506;2023-09-12T10:11:37;94070.88;;;30.98;40.63
9839;BME280;4958;48.150;11.506;2023-09-12T10:14:05;94039.34;;;31.12;39.84
9839;BME280;4958;48.150;11.506;2023-09-12T10:16:33;94029.38;;;31.25;39.95
9839;BME280;4958;48.150;11.506;2023-09-12T10:19:05;94053.03;;;31.30;40.18
9839;BME280;4958;48.150;11.506;2023-09-12T10:21:45;94106.78;;;31.36;41.12
9839;BME280;4958;48.150;11.506;2023-09-12T10:24:14;94064.03;;;31.13;40.50
9839;BME280;4958;48.150;11.506;2023-09-12T10:26:41;94082.53;;;31.09;40.41
9839;BME280;4958;48.150;11.506;2023-09-12T10:29:12;94085.53;;;31.08;40.76
9839;BME280;4958;48.150;11.506;2023-09-12T10:31:40;94103.75;;;30.78;40.89
9839;BME280;4958;48.150;11.506;2023-09-12T10:34:07;94118.22;;;30.80;41.42
9839;BME280;4958;48.150;11.506;2023-09-12T10:36:38;94135.47;;;30.71;41.63
9839;BME280;4958;48.150;11.506;2023-09-12T10:39:06;94157.53;;;30.87;42.03
9839;BME280;4958;48.150;11.506;2023-09-12T10:41:32;94111.44;;;30.95;41.30
9839;BME280;4958;48.150;11.506;2023-09-12T10:44:00;94098.19;;;30.83;40.92
9839;BME280;4958;48.150;11.506;2023-09-12T10:46:28;94117.00;;;30.62;41.91
9839;BME280;4958;48.150;11.506;2023-09-12T10:48:54;94147.78;;;30.51;41.98
9839;BME280;4958;48.150;11.506;2023-09-12T10:51:21;94180.88;;;30.53;42.70
9839;BME280;4958;48.150;11.506;2023-09-12T10:53:50;94153.97;;;30.67;42.40
9839;BME280;4958;48.150;11.506;2023-09-12T10:56:18;94098.06;;;30.64;41.59
9839;BME280;4958;48.150;11.506;2023-09-12T10:59:13;94124.31;;;30.53;42.01
9839;BME280;4958;48.150;11.506;2023-09-12T11:01:41;94114.84;;;30.40;41.75
9839;BME280;4958;48.150;11.506;2023-09-12T11:04:30;94140.59;;;30.51;42.00
9839;BME280;4958;48.150;11.506;2023-09-12T11:06:58;94109.38;;;30.48;41.70
9839;BME280;4958;48.150;11.506;2023-09-12T11:09:26;94114.84;;;30.40;41.23
9839;BME280;4958;48.150;11.506;2023-09-12T11:11:56;94148.78;;;30.46;42.30
9839;BME280;4958;48.150;11.506;2023-09-12T11:14:23;94151.66;;;30.53;42.13
9839;BME280;4958;48.150;11.506;2023-09-12T11:17:21;94136.22;;;30.71;41.94
9839;BME280;4958;48.150;11.506;2023-09-12T11:19:49;94087.13;;;30.81;41.25
9839;BME280;4958;48.150;11.506;2023-09-12T11:22:25;94078.13;;;30.85;40.93
9839;BME280;4958;48.150;11.506;2023-09-12T11:24:53;94048.97;;;30.73;40.17
9839;BME280;4958;48.150;11.506;2023-09-12T11:27:21;94061.72;;;30.68;40.95
9839;BME280;4958;48.150;11.506;2023-09-12T11:29:48;94075.72;;;30.52;40.81
9839;BME280;4958;48.150;11.506;2023-09-12T11:32:30;94102.16;;;30.61;41.00
9839;BME280;4958;48.150;11.506;2023-09-12T11:34:59;94034.47;;;30.71;39.85
9839;BME280;4958;48.150;11.506;2023-09-12T11:37:26;94017.09;;;30.89;39.99
9839;BME280;4958;48.150;11.506;2023-09-12T11:39:58;93967.34;;;31.05;38.71
9839;BME280;4958;48.150;11.506;2023-09-12T11:42:26;94001.03;;;31.01;39.52
9839;BME280;4958;48.150;11.506;2023-09-12T11:44:53;94023.09;;;30.86;40.49
9839;BME280;4958;48.150;11.506;2023-09-12T11:47:19;94046.75;;;30.75;40.32
9839;BME280;4958;48.150;11.506;2023-09-12T11:49:46;94061.31;;;30.81;40.26
9839;BME280;4958;48.150;11.506;2023-09-12T11:52:14;94059.75;;;30.80;40.39
9839;BME280;4958;48.150;11.506;2023-09-12T11:54:42;94055.06;;;30.74;40.25
9839;BME280;4958;48.150;11.506;2023-09-12T11:57:12;94072.47;;;30.87;41.21
9839;BME280;4958;48.150;11.506;2023-09-12T11:59:40;94077.47;;;31.04;40.55
9839;BME280;4958;48.150;11.506;2023-09-12T12:02:09;94043.53;;;31.13;40.17
9839;BME280;4958;48.150;11.506;2023-09-12T12:04:36;94001.66;;;30.95;39.93
9839;BME280;4958;48.150;11.506;2023-09-12T12:07:04;94019.16;;;30.96;40.10
9839;BME280;4958;48.150;11.506;2023-09-12T12:09:31;94036.13;;;31.07;40.15
9839;BME280;4958;48.150;11.506;2023-09-12T12:12:03;94011.09;;;31.23;39.75
9839;BME280;4958;48.150;11.506;2023-09-12T12:14:34;93963.38;;;31.31;38.96
9839;BME280;4958;48.150;11.506;2023-09-12T12:17:06;94018.34;;;31.42;39.75
9839;BME280;4958;48.150;11.506;2023-09-12T12:19:33;93976.31;;;31.48;39.54
9839;BME280;4958;48.150;11.506;2023-09-12T12:22:02;93957.28;;;31.65;39.27
9839;BME280;4958;48.150;11.506;2023-09-12T12:24:36;93927.53;;;31.79;38.68
9839;BME280;4958;48.150;11.506;2023-09-12T12:27:04;93902.53;;;31.83;38.12
9839;BME280;4958;48.150;11.506;2023-09-12T12:29:30;93889.81;;;31.96;37.57
9839;BME280;4958;48.150;11.506;2023-09-12T12:32:00;93895.56;;;31.98;37.73
9839;BME280;4958;48.150;11.506;2023-09-12T12:34:30;93936.59;;;32.16;38.65
9839;BME280;4958;48.150;11.506;2023-09-12T12:36:57;93921.22;;;32.25;38.38
9839;BME280;4958;48.150;11.506;2023-09-12T12:39:24;93898.44;;;32.28;38.00
9839;BME280;4958;48.150;11.506;2023-09-12T12:41:52;93904.09;;;32.26;38.07
9839;BME280;4958;48.150;11.506;2023-09-12T12:44:19;93892.91;;;32.40;38.01
9839;BME280;4958;48.150;11.506;2023-09-12T12:46:49;93803.09;;;32.41;36.57
9839;BME280;4958;48.150;11.506;2023-09-12T12:49:17;93811.84;;;32.41;36.55
9839;BME280;4958;48.150;11.506;2023-09-12T12:51:44;93828.75;;;32.52;36.54
9839;BME280;4958;48.150;11.506;2023-09-12T12:54:11;93859.84;;;32.68;37.08
9839;BME280;4958;48.150;11.506;2023-09-12T12:56:38;93758.97;;;32.70;35.82
9839;BME280;4958;48.150;11.506;2023-09-12T12:59:05;93791.78;;;32.74;36.45
9839;BME280;4958;48.150;11.506;2023-09-12T13:01:34;93758.00;;;32.81;35.89
9839;BME280;4958;48.150;11.506;2023-09-12T13:04:00;93764.22;;;32.89;36.04
9839;BME280;4958;48.150;11.506;2023-09-12T13:06:28;93681.47;;;32.82;34.65
9839;BME280;4958;48.150;11.506;2023-09-12T13:08:55;93666.56;;;32.77;34.66
9839;BME280;4958;48.150;11.506;2023-09-12T13:11:22;93674.50;;;32.74;34.58
9839;BME280;4958;48.150;11.506;2023-09-12T13:13:49;93677.31;;;32.84;34.63